Aviation Digital Data Service (ADDS)

Output produced by METARs form (1850 UTC 18 April 2019)
found at http://www.aviationweather.gov/metar/data/
 
Forecast for: EDDF (FRANKFURT MAIN A, DE)
Text: TAF EDDF 181700Z 1818/1924 08010KT CAVOK
Forecast period: 1800 to 2300 UTC 18 April 2019
Forecast type: FROM: standard forecast or significant change
Winds: from the E (80 degrees) at 12 MPH (10 knots; 5.1 m/s)
Visibility: 6 or more miles 10+ km)
Ceiling: unknown
Clouds: missing
Weather: NSW  (no significant weather)
Text: BECMG 1823/1901 02007KT
Forecast period: 2300 UTC 18 April 2019 to 1000 UTC 19 April 2019
Forecast type: BECOMING: Conditions expected to become as follows by 0100 UTC 19 April 2019
Winds: from the NNE (20 degrees) at 8 MPH (7 knots; 3.6 m/s)
Visibility: 6 or more miles 10+ km)
Ceiling: unknown
Clouds: missing
Weather: NSW  (no significant weather)
Text: BECMG 1910/1912 08009KT
Forecast period: 1000 UTC 19 April 2019 to 0000 UTC 20 April 2019
Forecast type: BECOMING: Conditions expected to become as follows by 1200 UTC 19 April 2019
Winds: from the E (80 degrees) at 10 MPH (9 knots; 4.6 m/s)
Visibility: 6 or more miles 10+ km)
Ceiling: unknown
Clouds: missing
Weather: NSW  (no significant weather)